Aviation Digital Data Service (ADDS)

Output produced by METARs form (2110 UTC 27 July 2016)
found at http://aviationweather.gov/adds/metars/
 
KEWN 271720Z 2718/2818 25006KT P6SM SCT050 
     FM272000 21006KT P6SM VCTS SCT040CB 
     FM280000 23006KT P6SM SCT050